sensor_id;sensor_type;location;lat;lon;timestamp;P1;durP1;ratioP1;P2;durP2;ratioP2
77158;SDS011;66129;45.890;13.714;2023-09-08T00:00:46;5.18;;;3.75;;
77158;SDS011;66129;45.890;13.714;2023-09-08T00:03:13;11.07;;;3.85;;
77158;SDS011;66129;45.890;13.714;2023-09-08T00:05:38;5.15;;;3.20;;
77158;SDS011;66129;45.890;13.714;2023-09-08T00:08:04;5.90;;;3.67;;
77158;SDS011;66129;45.890;13.714;2023-09-08T00:10:30;7.13;;;3.90;;
77158;SDS011;66129;45.890;13.714;2023-09-08T00:12:55;5.82;;;3.58;;
77158;SDS011;66129;45.890;13.714;2023-09-08T00:15:20;6.40;;;4.07;;
77158;SDS011;66129;45.890;13.714;2023-09-08T00:17:46;6.43;;;3.78;;
77158;SDS011;66129;45.890;13.714;2023-09-08T00:20:12;5.85;;;3.58;;
77158;SDS011;66129;45.890;13.714;2023-09-08T00:22:38;6.18;;;4.30;;
77158;SDS011;66129;45.890;13.714;2023-09-08T00:25:04;5.78;;;3.85;;
77158;SDS011;66129;45.890;13.714;2023-09-08T00:27:31;7.03;;;3.80;;
77158;SDS011;66129;45.890;13.714;2023-09-08T00:29:57;7.55;;;4.70;;
77158;SDS011;66129;45.890;13.714;2023-09-08T00:32:23;6.97;;;3.80;;
77158;SDS011;66129;45.890;13.714;2023-09-08T00:34:48;6.18;;;3.90;;
77158;SDS011;66129;45.890;13.714;2023-09-08T00:37:14;4.88;;;3.47;;
77158;SDS011;66129;45.890;13.714;2023-09-08T00:39:39;9.65;;;3.97;;
77158;SDS011;66129;45.890;13.714;2023-09-08T00:42:05;6.80;;;4.28;;
77158;SDS011;66129;45.890;13.714;2023-09-08T00:44:32;6.70;;;3.67;;
77158;SDS011;66129;45.890;13.714;2023-09-08T00:46:57;6.03;;;3.92;;
77158;SDS011;66129;45.890;13.714;2023-09-08T00:49:23;7.13;;;4.75;;
77158;SDS011;66129;45.890;13.714;2023-09-08T00:51:49;5.35;;;3.63;;
77158;SDS011;66129;45.890;13.714;2023-09-08T00:54:15;6.40;;;3.67;;
77158;SDS011;66129;45.890;13.714;2023-09-08T00:56:40;6.88;;;4.13;;
77158;SDS011;66129;45.890;13.714;2023-09-08T00:59:06;5.43;;;4.30;;
77158;SDS011;66129;45.890;13.714;2023-09-08T01:01:33;7.95;;;4.47;;
77158;SDS011;66129;45.890;13.714;2023-09-08T01:04:00;6.93;;;4.05;;
77158;SDS011;66129;45.890;13.714;2023-09-08T01:06:26;7.80;;;4.40;;
77158;SDS011;66129;45.890;13.714;2023-09-08T01:08:52;6.32;;;4.20;;
77158;SDS011;66129;45.890;13.714;2023-09-08T01:11:20;5.05;;;3.75;;
77158;SDS011;66129;45.890;13.714;2023-09-08T01:13:46;6.60;;;4.55;;
77158;SDS011;66129;45.890;13.714;2023-09-08T01:16:12;6.75;;;4.35;;
77158;SDS011;66129;45.890;13.714;2023-09-08T01:18:37;7.57;;;4.75;;
77158;SDS011;66129;45.890;13.714;2023-09-08T01:26:42;7.93;;;4.40;;
77158;SDS011;66129;45.890;13.714;2023-09-08T01:29:09;6.30;;;4.20;;
77158;SDS011;66129;45.890;13.714;2023-09-08T01:31:36;7.57;;;4.65;;
77158;SDS011;66129;45.890;13.714;2023-09-08T01:34:03;7.70;;;4.25;;
77158;SDS011;66129;45.890;13.714;2023-09-08T01:36:33;5.95;;;4.20;;
77158;SDS011;66129;45.890;13.714;2023-09-08T01:39:00;10.23;;;4.65;;
77158;SDS011;66129;45.890;13.714;2023-09-08T01:41:26;8.05;;;4.57;;
77158;SDS011;66129;45.890;13.714;2023-09-08T01:43:51;6.15;;;4.10;;
77158;SDS011;66129;45.890;13.714;2023-09-08T01:46:17;6.80;;;4.25;;
77158;SDS011;66129;45.890;13.714;2023-09-08T01:48:42;5.80;;;4.18;;
77158;SDS011;66129;45.890;13.714;2023-09-08T01:51:08;6.20;;;3.90;;
77158;SDS011;66129;45.890;13.714;2023-09-08T01:53:33;6.40;;;4.05;;
77158;SDS011;66129;45.890;13.714;2023-09-08T01:55:59;7.03;;;4.30;;
77158;SDS011;66129;45.890;13.714;2023-09-08T01:58:24;7.47;;;4.10;;
77158;SDS011;66129;45.890;13.714;2023-09-08T02:00:50;8.48;;;4.65;;
77158;SDS011;66129;45.890;13.714;2023-09-08T02:03:16;6.70;;;4.03;;
77158;SDS011;66129;45.890;13.714;2023-09-08T02:05:42;5.82;;;4.63;;
77158;SDS011;66129;45.890;13.714;2023-09-08T02:08:07;7.22;;;4.20;;
77158;SDS011;66129;45.890;13.714;2023-09-08T02:10:33;6.80;;;4.68;;
77158;SDS011;66129;45.890;13.714;2023-09-08T02:12:58;5.97;;;4.15;;
77158;SDS011;66129;45.890;13.714;2023-09-08T02:15:24;7.70;;;4.15;;
77158;SDS011;66129;45.890;13.714;2023-09-08T02:17:53;7.68;;;4.30;;
77158;SDS011;66129;45.890;13.714;2023-09-08T02:20:21;5.10;;;3.95;;
77158;SDS011;66129;45.890;13.714;2023-09-08T02:22:49;6.88;;;4.45;;
77158;SDS011;66129;45.890;13.714;2023-09-08T02:25:15;6.63;;;4.18;;
77158;SDS011;66129;45.890;13.714;2023-09-08T02:27:40;7.85;;;4.90;;
77158;SDS011;66129;45.890;13.714;2023-09-08T02:30:06;10.13;;;4.55;;
77158;SDS011;66129;45.890;13.714;2023-09-08T02:32:32;6.18;;;4.03;;
77158;SDS011;66129;45.890;13.714;2023-09-08T02:34:57;6.80;;;4.70;;
77158;SDS011;66129;45.890;13.714;2023-09-08T02:37:23;7.05;;;4.13;;
77158;SDS011;66129;45.890;13.714;2023-09-08T02:39:48;6.80;;;4.47;;
77158;SDS011;66129;45.890;13.714;2023-09-08T02:42:13;7.93;;;4.55;;
77158;SDS011;66129;45.890;13.714;2023-09-08T02:44:39;6.88;;;4.32;;
77158;SDS011;66129;45.890;13.714;2023-09-08T02:47:04;7.10;;;4.70;;
77158;SDS011;66129;45.890;13.714;2023-09-08T02:49:31;7.18;;;4.75;;
77158;SDS011;66129;45.890;13.714;2023-09-08T02:51:57;7.32;;;4.40;;
77158;SDS011;66129;45.890;13.714;2023-09-08T02:54:22;7.25;;;4.72;;
77158;SDS011;66129;45.890;13.714;2023-09-08T02:56:48;6.15;;;4.47;;
77158;SDS011;66129;45.890;13.714;2023-09-08T02:59:13;8.65;;;4.50;;
77158;SDS011;66129;45.890;13.714;2023-09-08T03:01:39;6.65;;;4.68;;
77158;SDS011;66129;45.890;13.714;2023-09-08T03:04:05;10.80;;;4.55;;
77158;SDS011;66129;45.890;13.714;2023-09-08T03:06:30;6.57;;;4.38;;
77158;SDS011;66129;45.890;13.714;2023-09-08T03:08:58;10.57;;;4.65;;
77158;SDS011;66129;45.890;13.714;2023-09-08T03:11:23;8.20;;;4.97;;
77158;SDS011;66129;45.890;13.714;2023-09-08T03:13:49;6.30;;;4.53;;
77158;SDS011;66129;45.890;13.714;2023-09-08T03:16:15;8.95;;;4.22;;
77158;SDS011;66129;45.890;13.714;2023-09-08T03:18:41;6.05;;;4.18;;
77158;SDS011;66129;45.890;13.714;2023-09-08T03:21:06;8.25;;;4.78;;
77158;SDS011;66129;45.890;13.714;2023-09-08T03:23:36;5.63;;;4.00;;
77158;SDS011;66129;45.890;13.714;2023-09-08T03:26:03;5.93;;;4.55;;
77158;SDS011;66129;45.890;13.714;2023-09-08T03:28:28;7.00;;;4.40;;
77158;SDS011;66129;45.890;13.714;2023-09-08T03:30:54;8.52;;;4.93;;
77158;SDS011;66129;45.890;13.714;2023-09-08T03:33:19;7.80;;;4.40;;
77158;SDS011;66129;45.890;13.714;2023-09-08T03:35:45;6.88;;;4.75;;
77158;SDS011;66129;45.890;13.714;2023-09-08T03:38:10;5.47;;;3.97;;
77158;SDS011;66129;45.890;13.714;2023-09-08T03:40:35;6.65;;;4.68;;
77158;SDS011;66129;45.890;13.714;2023-09-08T03:43:01;8.40;;;5.80;;
77158;SDS011;66129;45.890;13.714;2023-09-08T03:45:27;7.05;;;3.80;;
77158;SDS011;66129;45.890;13.714;2023-09-08T03:47:52;6.40;;;4.40;;
77158;SDS011;66129;45.890;13.714;2023-09-08T03:50:17;6.72;;;4.10;;
77158;SDS011;66129;45.890;13.714;2023-09-08T03:52:43;6.72;;;4.38;;
77158;SDS011;66129;45.890;13.714;2023-09-08T03:55:08;7.57;;;4.75;;
77158;SDS011;66129;45.890;13.714;2023-09-08T03:57:34;6.75;;;3.90;;
77158;SDS011;66129;45.890;13.714;2023-09-08T03:59:59;7.10;;;4.15;;
77158;SDS011;66129;45.890;13.714;2023-09-08T04:02:25;5.80;;;4.43;;
77158;SDS011;66129;45.890;13.714;2023-09-08T04:04:50;7.07;;;4.55;;
77158;SDS011;66129;45.890;13.714;2023-09-08T04:07:16;8.00;;;4.45;;
77158;SDS011;66129;45.890;13.714;2023-09-08T04:09:41;6.40;;;4.43;;
77158;SDS011;66129;45.890;13.714;2023-09-08T04:12:07;7.15;;;4.75;;
77158;SDS011;66129;45.890;13.714;2023-09-08T04:14:34;8.00;;;4.25;;
77158;SDS011;66129;45.890;13.714;2023-09-08T04:17:01;9.30;;;4.50;;
77158;SDS011;66129;45.890;13.714;2023-09-08T04:19:26;6.05;;;4.50;;
77158;SDS011;66129;45.890;13.714;2023-09-08T04:21:52;6.18;;;3.83;;
77158;SDS011;66129;45.890;13.714;2023-09-08T04:24:17;5.63;;;4.10;;
77158;SDS011;66129;45.890;13.714;2023-09-08T04:26:43;6.07;;;3.70;;
77158;SDS011;66129;45.890;13.714;2023-09-08T04:29:08;5.70;;;3.85;;
77158;SDS011;66129;45.890;13.714;2023-09-08T04:31:34;5.60;;;3.80;;
77158;SDS011;66129;45.890;13.714;2023-09-08T04:33:59;6.82;;;4.38;;
77158;SDS011;66129;45.890;13.714;2023-09-08T04:36:24;7.30;;;4.53;;
77158;SDS011;66129;45.890;13.714;2023-09-08T04:38:50;6.90;;;4.72;;
77158;SDS011;66129;45.890;13.714;2023-09-08T04:41:15;7.05;;;4.20;;
77158;SDS011;66129;45.890;13.714;2023-09-08T04:43:41;5.60;;;3.70;;
77158;SDS011;66129;45.890;13.714;2023-09-08T04:46:06;8.50;;;3.90;;
77158;SDS011;66129;45.890;13.714;2023-09-08T04:48:33;6.50;;;3.97;;
77158;SDS011;66129;45.890;13.714;2023-09-08T04:50:59;6.75;;;3.85;;
77158;SDS011;66129;45.890;13.714;2023-09-08T04:53:24;5.53;;;3.70;;
77158;SDS011;66129;45.890;13.714;2023-09-08T04:55:50;6.97;;;3.72;;
77158;SDS011;66129;45.890;13.714;2023-09-08T04:58:15;6.15;;;4.05;;
77158;SDS011;66129;45.890;13.714;2023-09-08T05:00:41;6.30;;;3.90;;
77158;SDS011;66129;45.890;13.714;2023-09-08T05:03:06;5.15;;;3.50;;
77158;SDS011;66129;45.890;13.714;2023-09-08T05:05:32;5.95;;;3.60;;
77158;SDS011;66129;45.890;13.714;2023-09-08T05:07:57;7.22;;;4.32;;
77158;SDS011;66129;45.890;13.714;2023-09-08T05:10:23;8.63;;;3.60;;
77158;SDS011;66129;45.890;13.714;2023-09-08T05:12:50;5.75;;;3.53;;
77158;SDS011;66129;45.890;13.714;2023-09-08T05:15:16;6.75;;;4.20;;
77158;SDS011;66129;45.890;13.714;2023-09-08T05:17:45;9.95;;;3.70;;
77158;SDS011;66129;45.890;13.714;2023-09-08T05:20:10;5.38;;;3.65;;
77158;SDS011;66129;45.890;13.714;2023-09-08T05:22:36;6.35;;;3.72;;
77158;SDS011;66129;45.890;13.714;2023-09-08T05:25:02;5.55;;;3.72;;
77158;SDS011;66129;45.890;13.714;2023-09-08T05:27:28;4.30;;;3.47;;
77158;SDS011;66129;45.890;13.714;2023-09-08T05:29:53;5.05;;;3.50;;
77158;SDS011;66129;45.890;13.714;2023-09-08T05:32:19;5.45;;;3.20;;
77158;SDS011;66129;45.890;13.714;2023-09-08T05:34:44;4.53;;;3.13;;
77158;SDS011;66129;45.890;13.714;2023-09-08T05:37:10;3.85;;;2.78;;
77158;SDS011;66129;45.890;13.714;2023-09-08T05:39:35;7.63;;;3.35;;
77158;SDS011;66129;45.890;13.714;2023-09-08T05:42:01;7.90;;;4.65;;
77158;SDS011;66129;45.890;13.714;2023-09-08T05:44:26;5.95;;;3.70;;
77158;SDS011;66129;45.890;13.714;2023-09-08T05:46:52;6.28;;;3.75;;
77158;SDS011;66129;45.890;13.714;2023-09-08T05:49:17;7.40;;;3.60;;
77158;SDS011;66129;45.890;13.714;2023-09-08T05:51:43;5.18;;;3.53;;
77158;SDS011;66129;45.890;13.714;2023-09-08T05:54:09;4.53;;;3.47;;
77158;SDS011;66129;45.890;13.714;2023-09-08T05:56:36;5.78;;;3.30;;
77158;SDS011;66129;45.890;13.714;2023-09-08T05:59:02;4.75;;;3.40;;
77158;SDS011;66129;45.890;13.714;2023-09-08T06:01:28;5.85;;;3.28;;
77158;SDS011;66129;45.890;13.714;2023-09-08T06:03:54;4.40;;;2.88;;
77158;SDS011;66129;45.890;13.714;2023-09-08T06:06:19;5.70;;;3.22;;
77158;SDS011;66129;45.890;13.714;2023-09-08T06:08:46;5.43;;;3.22;;
77158;SDS011;66129;45.890;13.714;2023-09-08T06:11:12;3.88;;;2.83;;
77158;SDS011;66129;45.890;13.714;2023-09-08T06:13:37;5.78;;;3.33;;
77158;SDS011;66129;45.890;13.714;2023-09-08T06:16:03;5.10;;;3.45;;
77158;SDS011;66129;45.890;13.714;2023-09-08T06:18:28;6.60;;;3.60;;
77158;SDS011;66129;45.890;13.714;2023-09-08T06:20:55;6.72;;;3.20;;
77158;SDS011;66129;45.890;13.714;2023-09-08T06:23:21;8.07;;;3.75;;
77158;SDS011;66129;45.890;13.714;2023-09-08T06:25:47;4.88;;;3.53;;
77158;SDS011;66129;45.890;13.714;2023-09-08T06:28:13;3.80;;;3.08;;
77158;SDS011;66129;45.890;13.714;2023-09-08T06:30:39;5.60;;;3.25;;
77158;SDS011;66129;45.890;13.714;2023-09-08T06:33:07;5.05;;;3.05;;
77158;SDS011;66129;45.890;13.714;2023-09-08T06:35:35;5.97;;;3.17;;
77158;SDS011;66129;45.890;13.714;2023-09-08T06:38:00;5.45;;;2.88;;
77158;SDS011;66129;45.890;13.714;2023-09-08T06:40:26;8.02;;;3.20;;
77158;SDS011;66129;45.890;13.714;2023-09-08T06:42:54;5.10;;;3.55;;
77158;SDS011;66129;45.890;13.714;2023-09-08T06:45:20;9.80;;;3.20;;
77158;SDS011;66129;45.890;13.714;2023-09-08T06:47:45;4.45;;;3.10;;
77158;SDS011;66129;45.890;13.714;2023-09-08T06:50:11;5.53;;;3.15;;
77158;SDS011;66129;45.890;13.714;2023-09-08T06:52:37;5.07;;;3.03;;
77158;SDS011;66129;45.890;13.714;2023-09-08T06:55:02;4.78;;;3.35;;
77158;SDS011;66129;45.890;13.714;2023-09-08T06:57:28;6.05;;;3.10;;
77158;SDS011;66129;45.890;13.714;2023-09-08T06:59:53;7.95;;;3.13;;
77158;SDS011;66129;45.890;13.714;2023-09-08T07:02:19;4.13;;;2.80;;
77158;SDS011;66129;45.890;13.714;2023-09-08T07:04:44;5.70;;;2.80;;
77158;SDS011;66129;45.890;13.714;2023-09-08T07:07:10;4.72;;;3.00;;
77158;SDS011;66129;45.890;13.714;2023-09-08T07:09:35;6.95;;;3.33;;
77158;SDS011;66129;45.890;13.714;2023-09-08T07:12:05;7.25;;;3.17;;
77158;SDS011;66129;45.890;13.714;2023-09-08T07:14:31;4.97;;;3.15;;
77158;SDS011;66129;45.890;13.714;2023-09-08T07:16:57;4.70;;;2.72;;
77158;SDS011;66129;45.890;13.714;2023-09-08T07:19:23;4.97;;;3.50;;
77158;SDS011;66129;45.890;13.714;2023-09-08T07:21:49;6.32;;;3.55;;
77158;SDS011;66129;45.890;13.714;2023-09-08T07:24:14;4.45;;;3.30;;
77158;SDS011;66129;45.890;13.714;2023-09-08T07:26:40;5.68;;;3.17;;
77158;SDS011;66129;45.890;13.714;2023-09-08T07:29:05;5.40;;;3.10;;
77158;SDS011;66129;45.890;13.714;2023-09-08T07:31:31;7.28;;;2.83;;
77158;SDS011;66129;45.890;13.714;2023-09-08T07:33:56;6.10;;;3.33;;
77158;SDS011;66129;45.890;13.714;2023-09-08T07:36:22;6.20;;;2.97;;
77158;SDS011;66129;45.890;13.714;2023-09-08T07:38:47;5.80;;;3.00;;
77158;SDS011;66129;45.890;13.714;2023-09-08T07:41:13;6.15;;;3.30;;
77158;SDS011;66129;45.890;13.714;2023-09-08T07:43:38;4.88;;;2.80;;
77158;SDS011;66129;45.890;13.714;2023-09-08T07:46:06;4.10;;;2.85;;
77158;SDS011;66129;45.890;13.714;2023-09-08T07:48:32;6.47;;;2.97;;
77158;SDS011;66129;45.890;13.714;2023-09-08T07:50:57;6.35;;;3.10;;
77158;SDS011;66129;45.890;13.714;2023-09-08T07:53:25;10.73;;;3.30;;
77158;SDS011;66129;45.890;13.714;2023-09-08T07:55:51;5.22;;;3.13;;
77158;SDS011;66129;45.890;13.714;2023-09-08T07:58:16;5.55;;;3.05;;
77158;SDS011;66129;45.890;13.714;2023-09-08T08:00:42;5.93;;;3.08;;
77158;SDS011;66129;45.890;13.714;2023-09-08T08:03:07;9.00;;;3.25;;
77158;SDS011;66129;45.890;13.714;2023-09-08T08:05:33;5.47;;;3.25;;
77158;SDS011;66129;45.890;13.714;2023-09-08T08:07:59;4.90;;;3.05;;
77158;SDS011;66129;45.890;13.714;2023-09-08T08:10:25;4.45;;;3.10;;
77158;SDS011;66129;45.890;13.714;2023-09-08T08:12:50;5.10;;;2.97;;
77158;SDS011;66129;45.890;13.714;2023-09-08T08:15:19;5.60;;;3.20;;
77158;SDS011;66129;45.890;13.714;2023-09-08T08:17:48;4.57;;;2.83;;
77158;SDS011;66129;45.890;13.714;2023-09-08T08:20:13;4.22;;;3.17;;
77158;SDS011;66129;45.890;13.714;2023-09-08T08:22:42;6.30;;;3.25;;
77158;SDS011;66129;45.890;13.714;2023-09-08T08:25:10;4.30;;;2.95;;
77158;SDS011;66129;45.890;13.714;2023-09-08T08:27:36;4.72;;;3.25;;
77158;SDS011;66129;45.890;13.714;2023-09-08T08:30:01;4.35;;;3.08;;
77158;SDS011;66129;45.890;13.714;2023-09-08T08:32:28;5.63;;;2.92;;
77158;SDS011;66129;45.890;13.714;2023-09-08T08:34:53;3.47;;;2.95;;
77158;SDS011;66129;45.890;13.714;2023-09-08T08:37:19;4.68;;;3.35;;
77158;SDS011;66129;45.890;13.714;2023-09-08T08:39:44;5.05;;;3.20;;
77158;SDS011;66129;45.890;13.714;2023-09-08T08:42:10;5.03;;;2.65;;
77158;SDS011;66129;45.890;13.714;2023-09-08T08:44:37;5.13;;;3.10;;
77158;SDS011;66129;45.890;13.714;2023-09-08T08:47:05;5.88;;;3.42;;
77158;SDS011;66129;45.890;13.714;2023-09-08T08:49:32;8.23;;;2.80;;
77158;SDS011;66129;45.890;13.714;2023-09-08T08:51:58;6.68;;;3.03;;
77158;SDS011;66129;45.890;13.714;2023-09-08T08:54:25;4.30;;;2.80;;
77158;SDS011;66129;45.890;13.714;2023-09-08T08:56:51;4.28;;;2.85;;
77158;SDS011;66129;45.890;13.714;2023-09-08T08:59:17;6.25;;;3.10;;
77158;SDS011;66129;45.890;13.714;2023-09-08T09:01:43;5.03;;;2.95;;
77158;SDS011;66129;45.890;13.714;2023-09-08T09:04:10;5.88;;;3.28;;
77158;SDS011;66129;45.890;13.714;2023-09-08T09:06:36;6.07;;;3.58;;
77158;SDS011;66129;45.890;13.714;2023-09-08T09:09:01;5.35;;;3.05;;
77158;SDS011;66129;45.890;13.714;2023-09-08T09:11:29;4.35;;;2.88;;
77158;SDS011;66129;45.890;13.714;2023-09-08T09:13:56;4.65;;;3.08;;
77158;SDS011;66129;45.890;13.714;2023-09-08T09:16:22;5.50;;;3.00;;
77158;SDS011;66129;45.890;13.714;2023-09-08T09:18:54;8.02;;;3.00;;
77158;SDS011;66129;45.890;13.714;2023-09-08T09:21:21;4.88;;;3.17;;
77158;SDS011;66129;45.890;13.714;2023-09-08T09:23:47;4.43;;;3.33;;
77158;SDS011;66129;45.890;13.714;2023-09-08T09:26:22;5.20;;;3.22;;
77158;SDS011;66129;45.890;13.714;2023-09-08T09:31:17;5.78;;;3.22;;
77158;SDS011;66129;45.890;13.714;2023-09-08T09:33:43;4.10;;;3.03;;
77158;SDS011;66129;45.890;13.714;2023-09-08T09:36:09;5.70;;;3.05;;
77158;SDS011;66129;45.890;13.714;2023-09-08T09:38:34;8.68;;;3.33;;
77158;SDS011;66129;45.890;13.714;2023-09-08T09:41:00;5.22;;;2.75;;
77158;SDS011;66129;45.890;13.714;2023-09-08T09:43:27;5.45;;;3.30;;
77158;SDS011;66129;45.890;13.714;2023-09-08T09:45:54;4.03;;;2.63;;
77158;SDS011;66129;45.890;13.714;2023-09-08T09:48:21;5.15;;;3.38;;
77158;SDS011;66129;45.890;13.714;2023-09-08T09:50:48;6.90;;;3.22;;
77158;SDS011;66129;45.890;13.714;2023-09-08T09:53:15;7.30;;;2.90;;
77158;SDS011;66129;45.890;13.714;2023-09-08T09:55:42;6.43;;;3.47;;
77158;SDS011;66129;45.890;13.714;2023-09-08T09:58:09;4.72;;;3.33;;
77158;SDS011;66129;45.890;13.714;2023-09-08T10:00:36;6.93;;;3.42;;
77158;SDS011;66129;45.890;13.714;2023-09-08T10:03:06;4.00;;;3.30;;
77158;SDS011;66129;45.890;13.714;2023-09-08T10:05:31;4.32;;;3.03;;
77158;SDS011;66129;45.890;13.714;2023-09-08T10:07:57;5.53;;;2.92;;
77158;SDS011;66129;45.890;13.714;2023-09-08T10:10:23;3.60;;;2.70;;
77158;SDS011;66129;45.890;13.714;2023-09-08T10:12:54;5.30;;;2.97;;
77158;SDS011;66129;45.890;13.714;2023-09-08T10:15:21;5.00;;;3.25;;
77158;SDS011;66129;45.890;13.714;2023-09-08T10:17:54;5.72;;;3.20;;
77158;SDS011;66129;45.890;13.714;2023-09-08T10:20:25;4.22;;;3.33;;
77158;SDS011;66129;45.890;13.714;2023-09-08T10:23:37;4.63;;;3.13;;
77158;SDS011;66129;45.890;13.714;2023-09-08T10:25:53;5.22;;;3.17;;
77158;SDS011;66129;45.890;13.714;2023-09-08T10:28:24;4.88;;;3.00;;
77158;SDS011;66129;45.890;13.714;2023-09-08T10:30:51;6.47;;;3.70;;
77158;SDS011;66129;45.890;13.714;2023-09-08T10:33:17;8.15;;;3.05;;
77158;SDS011;66129;45.890;13.714;2023-09-08T10:35:44;6.00;;;3.50;;
77158;SDS011;66129;45.890;13.714;2023-09-08T10:38:23;4.85;;;3.20;;
77158;SDS011;66129;45.890;13.714;2023-09-08T10:40:53;6.18;;;3.40;;
77158;SDS011;66129;45.890;13.714;2023-09-08T10:43:38;4.65;;;3.20;;
77158;SDS011;66129;45.890;13.714;2023-09-08T10:46:10;4.70;;;3.13;;
77158;SDS011;66129;45.890;13.714;2023-09-08T10:48:46;5.13;;;3.13;;
77158;SDS011;66129;45.890;13.714;2023-09-08T10:51:15;4.30;;;3.20;;
77158;SDS011;66129;45.890;13.714;2023-09-08T10:53:42;8.20;;;5.13;;
77158;SDS011;66129;45.890;13.714;2023-09-08T10:56:08;5.30;;;3.88;;
77158;SDS011;66129;45.890;13.714;2023-09-08T10:58:36;4.40;;;3.10;;
77158;SDS011;66129;45.890;13.714;2023-09-08T11:01:17;5.35;;;3.33;;
77158;SDS011;66129;45.890;13.714;2023-09-08T11:03:45;10.73;;;6.85;;
77158;SDS011;66129;45.890;13.714;2023-09-08T11:06:15;4.57;;;3.28;;
77158;SDS011;66129;45.890;13.714;2023-09-08T11:08:42;6.10;;;3.58;;
77158;SDS011;66129;45.890;13.714;2023-09-08T11:11:11;4.95;;;4.00;;
77158;SDS011;66129;45.890;13.714;2023-09-08T11:13:38;6.93;;;3.60;;
77158;SDS011;66129;45.890;13.714;2023-09-08T11:16:05;5.38;;;3.03;;
77158;SDS011;66129;45.890;13.714;2023-09-08T11:18:31;6.38;;;3.22;;
77158;SDS011;66129;45.890;13.714;2023-09-08T11:21:02;6.50;;;3.58;;
77158;SDS011;66129;45.890;13.714;2023-09-08T11:23:28;4.13;;;2.80;;
77158;SDS011;66129;45.890;13.714;2023-09-08T11:25:54;4.60;;;2.90;;
77158;SDS011;66129;45.890;13.714;2023-09-08T11:28:21;3.95;;;3.00;;
77158;SDS011;66129;45.890;13.714;2023-09-08T11:30:48;5.90;;;3.45;;
77158;SDS011;66129;45.890;13.714;2023-09-08T11:33:14;4.15;;;3.20;;
77158;SDS011;66129;45.890;13.714;2023-09-08T11:35:41;7.47;;;3.03;;
77158;SDS011;66129;45.890;13.714;2023-09-08T11:38:09;6.03;;;2.88;;
77158;SDS011;66129;45.890;13.714;2023-09-08T11:40:35;6.53;;;3.50;;
77158;SDS011;66129;45.890;13.714;2023-09-08T11:43:02;7.13;;;3.28;;
77158;SDS011;66129;45.890;13.714;2023-09-08T11:45:28;4.65;;;2.80;;
77158;SDS011;66129;45.890;13.714;2023-09-08T11:47:55;4.20;;;2.75;;
77158;SDS011;66129;45.890;13.714;2023-09-08T11:50:22;4.32;;;3.08;;
77158;SDS011;66129;45.890;13.714;2023-09-08T11:52:49;3.53;;;2.97;;
77158;SDS011;66129;45.890;13.714;2023-09-08T11:55:16;7.10;;;3.38;;
77158;SDS011;66129;45.890;13.714;2023-09-08T11:57:44;4.88;;;2.58;;
77158;SDS011;66129;45.890;13.714;2023-09-08T12:00:12;5.03;;;3.15;;
77158;SDS011;66129;45.890;13.714;2023-09-08T12:02:42;5.65;;;3.03;;
77158;SDS011;66129;45.890;13.714;2023-09-08T12:05:27;4.45;;;2.83;;
77158;SDS011;66129;45.890;13.714;2023-09-08T12:07:57;6.22;;;3.35;;
77158;SDS011;66129;45.890;13.714;2023-09-08T12:10:23;6.78;;;4.35;;
77158;SDS011;66129;45.890;13.714;2023-09-08T12:12:51;12.70;;;7.43;;
77158;SDS011;66129;45.890;13.714;2023-09-08T12:15:35;7.55;;;4.78;;
77158;SDS011;66129;45.890;13.714;2023-09-08T12:18:02;4.97;;;3.42;;
77158;SDS011;66129;45.890;13.714;2023-09-08T12:20:29;8.27;;;4.55;;
77158;SDS011;66129;45.890;13.714;2023-09-08T12:23:06;6.82;;;4.05;;
77158;SDS011;66129;45.890;13.714;2023-09-08T12:25:45;5.00;;;3.08;;
77158;SDS011;66129;45.890;13.714;2023-09-08T12:28:12;5.70;;;4.15;;
77158;SDS011;66129;45.890;13.714;2023-09-08T12:30:37;4.88;;;3.33;;
77158;SDS011;66129;45.890;13.714;2023-09-08T12:33:04;4.35;;;3.00;;
77158;SDS011;66129;45.890;13.714;2023-09-08T12:35:29;4.22;;;2.92;;
77158;SDS011;66129;45.890;13.714;2023-09-08T12:40:23;3.75;;;2.97;;
77158;SDS011;66129;45.890;13.714;2023-09-08T12:42:49;4.78;;;3.15;;
77158;SDS011;66129;45.890;13.714;2023-09-08T12:45:15;6.32;;;3.78;;
77158;SDS011;66129;45.890;13.714;2023-09-08T12:47:40;4.80;;;3.17;;
77158;SDS011;66129;45.890;13.714;2023-09-08T12:50:06;4.40;;;3.20;;
77158;SDS011;66129;45.890;13.714;2023-09-08T12:52:32;5.07;;;3.15;;
77158;SDS011;66129;45.890;13.714;2023-09-08T12:54:58;4.50;;;3.10;;
77158;SDS011;66129;45.890;13.714;2023-09-08T12:57:23;5.78;;;3.45;;
77158;SDS011;66129;45.890;13.714;2023-09-08T12:59:49;6.38;;;3.25;;
77158;SDS011;66129;45.890;13.714;2023-09-08T13:02:16;4.47;;;3.08;;
77158;SDS011;66129;45.890;13.714;2023-09-08T13:04:42;4.38;;;2.88;;
77158;SDS011;66129;45.890;13.714;2023-09-08T13:07:13;6.88;;;3.30;;
77158;SDS011;66129;45.890;13.714;2023-09-08T13:09:42;4.68;;;2.88;;
77158;SDS011;66129;45.890;13.714;2023-09-08T13:12:07;5.40;;;3.17;;
77158;SDS011;66129;45.890;13.714;2023-09-08T13:14:38;5.53;;;3.58;;
77158;SDS011;66129;45.890;13.714;2023-09-08T13:17:04;5.63;;;3.05;;
77158;SDS011;66129;45.890;13.714;2023-09-08T13:19:31;5.68;;;2.92;;
77158;SDS011;66129;45.890;13.714;2023-09-08T13:21:57;4.97;;;3.05;;
77158;SDS011;66129;45.890;13.714;2023-09-08T13:24:23;6.13;;;3.45;;
77158;SDS011;66129;45.890;13.714;2023-09-08T13:26:48;5.18;;;3.63;;
77158;SDS011;66129;45.890;13.714;2023-09-08T13:29:15;3.67;;;2.80;;
77158;SDS011;66129;45.890;13.714;2023-09-08T13:31:41;4.38;;;2.88;;
77158;SDS011;66129;45.890;13.714;2023-09-08T13:34:07;5.57;;;4.15;;
77158;SDS011;66129;45.890;13.714;2023-09-08T13:36:32;5.50;;;3.20;;
77158;SDS011;66129;45.890;13.714;2023-09-08T13:38:58;5.00;;;3.42;;
77158;SDS011;66129;45.890;13.714;2023-09-08T13:41:24;5.05;;;3.03;;
77158;SDS011;66129;45.890;13.714;2023-09-08T13:44:28;3.97;;;2.95;;
77158;SDS011;66129;45.890;13.714;2023-09-08T13:46:57;4.45;;;2.58;;
77158;SDS011;66129;45.890;13.714;2023-09-08T13:49:23;3.75;;;2.63;;
77158;SDS011;66129;45.890;13.714;2023-09-08T13:51:48;9.13;;;2.90;;
77158;SDS011;66129;45.890;13.714;2023-09-08T13:54:17;3.67;;;2.78;;
77158;SDS011;66129;45.890;13.714;2023-09-08T13:56:43;4.10;;;3.03;;
77158;SDS011;66129;45.890;13.714;2023-09-08T13:59:08;7.53;;;3.08;;
77158;SDS011;66129;45.890;13.714;2023-09-08T14:01:35;4.78;;;3.15;;
77158;SDS011;66129;45.890;13.714;2023-09-08T14:04:02;4.00;;;2.83;;
77158;SDS011;66129;45.890;13.714;2023-09-08T14:06:31;4.60;;;3.25;;
77158;SDS011;66129;45.890;13.714;2023-09-08T14:08:57;13.15;;;3.78;;
77158;SDS011;66129;45.890;13.714;2023-09-08T14:11:23;5.20;;;3.58;;
77158;SDS011;66129;45.890;13.714;2023-09-08T14:13:49;4.25;;;2.92;;
77158;SDS011;66129;45.890;13.714;2023-09-08T14:16:14;5.90;;;3.30;;
77158;SDS011;66129;45.890;13.714;2023-09-08T14:18:41;4.53;;;3.08;;
77158;SDS011;66129;45.890;13.714;2023-09-08T14:21:06;4.82;;;3.20;;
77158;SDS011;66129;45.890;13.714;2023-09-08T14:23:32;4.47;;;3.03;;
77158;SDS011;66129;45.890;13.714;2023-09-08T14:26:02;5.55;;;3.03;;
77158;SDS011;66129;45.890;13.714;2023-09-08T14:28:28;4.07;;;2.92;;
77158;SDS011;66129;45.890;13.714;2023-09-08T14:30:54;4.30;;;2.90;;
77158;SDS011;66129;45.890;13.714;2023-09-08T14:33:19;6.60;;;3.13;;
77158;SDS011;66129;45.890;13.714;2023-09-08T14:35:45;6.30;;;3.05;;
77158;SDS011;66129;45.890;13.714;2023-09-08T14:38:16;4.22;;;2.88;;
77158;SDS011;66129;45.890;13.714;2023-09-08T14:40:42;5.78;;;3.03;;